sensor_id;sensor_type;location;lat;lon;timestamp;temperature;humidity
51982;DHT22;37998;53.416;6.730;2022-07-22T00:01:26;16.70;99.90
51982;DHT22;37998;53.416;6.730;2022-07-22T00:03:52;16.70;99.90
51982;DHT22;37998;53.416;6.730;2022-07-22T00:06:17;16.70;99.90
51982;DHT22;37998;53.416;6.730;2022-07-22T00:08:43;16.70;99.90
51982;DHT22;37998;53.416;6.730;2022-07-22T00:11:09;16.70;99.90
51982;DHT22;37998;53.416;6.730;2022-07-22T00:13:34;16.70;99.90
51982;DHT22;37998;53.416;6.730;2022-07-22T00:16:00;16.70;99.90
51982;DHT22;37998;53.416;6.730;2022-07-22T00:18:26;16.80;99.90
51982;DHT22;37998;53.416;6.730;2022-07-22T00:20:51;16.70;99.90
51982;DHT22;37998;53.416;6.730;2022-07-22T00:23:17;16.70;99.90
51982;DHT22;37998;53.416;6.730;2022-07-22T00:25:43;16.70;99.90
51982;DHT22;37998;53.416;6.730;2022-07-22T00:28:09;16.70;99.90
51982;DHT22;37998;53.416;6.730;2022-07-22T00:30:34;16.70;99.90
51982;DHT22;37998;53.416;6.730;2022-07-22T00:33:00;16.70;99.90
51982;DHT22;37998;53.416;6.730;2022-07-22T00:35:26;16.70;99.90
51982;DHT22;37998;53.416;6.730;2022-07-22T00:37:51;16.60;99.90
51982;DHT22;37998;53.416;6.730;2022-07-22T00:40:17;16.70;99.90
51982;DHT22;37998;53.416;6.730;2022-07-22T00:42:43;16.70;99.90
51982;DHT22;37998;53.416;6.730;2022-07-22T00:45:09;16.60;99.90
51982;DHT22;37998;53.416;6.730;2022-07-22T00:47:35;16.60;99.90
51982;DHT22;37998;53.416;6.730;2022-07-22T00:50:01;16.70;99.90
51982;DHT22;37998;53.416;6.730;2022-07-22T00:52:27;16.60;99.90
51982;DHT22;37998;53.416;6.730;2022-07-22T00:54:54;16.60;99.90
51982;DHT22;37998;53.416;6.730;2022-07-22T00:57:20;16.60;99.90
51982;DHT22;37998;53.416;6.730;2022-07-22T00:59:46;16.50;99.90
51982;DHT22;37998;53.416;6.730;2022-07-22T01:02:11;16.50;99.90
51982;DHT22;37998;53.416;6.730;2022-07-22T01:04:37;16.50;99.90
51982;DHT22;37998;53.416;6.730;2022-07-22T01:07:03;16.50;99.90
51982;DHT22;37998;53.416;6.730;2022-07-22T01:09:29;16.50;99.90
51982;DHT22;37998;53.416;6.730;2022-07-22T01:11:55;16.50;99.90
51982;DHT22;37998;53.416;6.730;2022-07-22T01:14:20;16.60;99.90
51982;DHT22;37998;53.416;6.730;2022-07-22T01:16:47;16.50;99.90
51982;DHT22;37998;53.416;6.730;2022-07-22T01:19:13;16.50;99.90
51982;DHT22;37998;53.416;6.730;2022-07-22T01:21:38;16.50;99.90
51982;DHT22;37998;53.416;6.730;2022-07-22T01:24:05;16.60;99.90
51982;DHT22;37998;53.416;6.730;2022-07-22T01:26:31;16.50;99.90
51982;DHT22;37998;53.416;6.730;2022-07-22T01:28:59;16.50;99.90
51982;DHT22;37998;53.416;6.730;2022-07-22T01:31:24;16.40;99.90
51982;DHT22;37998;53.416;6.730;2022-07-22T01:33:50;16.50;99.90
51982;DHT22;37998;53.416;6.730;2022-07-22T01:36:16;16.40;99.90
51982;DHT22;37998;53.416;6.730;2022-07-22T01:38:41;16.40;99.90
51982;DHT22;37998;53.416;6.730;2022-07-22T01:41:07;16.40;99.90
51982;DHT22;37998;53.416;6.730;2022-07-22T01:43:33;16.40;99.90
51982;DHT22;37998;53.416;6.730;2022-07-22T01:45:59;16.30;99.90
51982;DHT22;37998;53.416;6.730;2022-07-22T01:48:25;16.50;99.90
51982;DHT22;37998;53.416;6.730;2022-07-22T01:50:51;16.40;99.90
51982;DHT22;37998;53.416;6.730;2022-07-22T01:53:18;16.50;99.90
51982;DHT22;37998;53.416;6.730;2022-07-22T01:55:43;16.50;99.90
51982;DHT22;37998;53.416;6.730;2022-07-22T01:58:09;16.50;99.90
51982;DHT22;37998;53.416;6.730;2022-07-22T02:00:36;16.50;99.90
51982;DHT22;37998;53.416;6.730;2022-07-22T02:03:02;16.50;99.90
51982;DHT22;37998;53.416;6.730;2022-07-22T02:05:28;16.60;99.90
51982;DHT22;37998;53.416;6.730;2022-07-22T02:08:05;16.60;99.90
51982;DHT22;37998;53.416;6.730;2022-07-22T02:10:31;16.60;99.90
51982;DHT22;37998;53.416;6.730;2022-07-22T02:12:57;16.60;99.90
51982;DHT22;37998;53.416;6.730;2022-07-22T02:15:23;16.50;99.90
51982;DHT22;37998;53.416;6.730;2022-07-22T02:17:49;16.50;99.90
51982;DHT22;37998;53.416;6.730;2022-07-22T02:20:15;16.50;99.90
51982;DHT22;37998;53.416;6.730;2022-07-22T02:22:41;16.50;99.90
51982;DHT22;37998;53.416;6.730;2022-07-22T02:25:07;16.40;99.90
51982;DHT22;37998;53.416;6.730;2022-07-22T02:27:32;16.40;99.90
51982;DHT22;37998;53.416;6.730;2022-07-22T02:29:58;16.50;99.90
51982;DHT22;37998;53.416;6.730;2022-07-22T02:32:24;16.40;99.90
51982;DHT22;37998;53.416;6.730;2022-07-22T02:34:49;16.50;99.90
51982;DHT22;37998;53.416;6.730;2022-07-22T02:37:15;16.40;99.90
51982;DHT22;37998;53.416;6.730;2022-07-22T02:39:41;16.40;99.90
51982;DHT22;37998;53.416;6.730;2022-07-22T02:42:07;16.40;99.90
51982;DHT22;37998;53.416;6.730;2022-07-22T02:44:32;16.30;99.90
51982;DHT22;37998;53.416;6.730;2022-07-22T02:46:58;16.40;99.90
51982;DHT22;37998;53.416;6.730;2022-07-22T02:49:24;16.30;99.90
51982;DHT22;37998;53.416;6.730;2022-07-22T02:51:49;16.40;99.90
51982;DHT22;37998;53.416;6.730;2022-07-22T02:54:15;16.30;99.90
51982;DHT22;37998;53.416;6.730;2022-07-22T02:56:40;16.40;99.90
51982;DHT22;37998;53.416;6.730;2022-07-22T02:59:06;16.30;99.90
51982;DHT22;37998;53.416;6.730;2022-07-22T03:01:32;16.40;99.90
51982;DHT22;37998;53.416;6.730;2022-07-22T03:03:58;16.40;99.90
51982;DHT22;37998;53.416;6.730;2022-07-22T03:06:23;16.40;99.90
51982;DHT22;37998;53.416;6.730;2022-07-22T03:08:49;16.40;99.90
51982;DHT22;37998;53.416;6.730;2022-07-22T03:11:15;16.50;99.90
51982;DHT22;37998;53.416;6.730;2022-07-22T03:13:40;16.40;99.90
51982;DHT22;37998;53.416;6.730;2022-07-22T03:16:06;16.40;99.90
51982;DHT22;37998;53.416;6.730;2022-07-22T03:18:31;16.40;99.90
51982;DHT22;37998;53.416;6.730;2022-07-22T03:20:59;16.30;99.90
51982;DHT22;37998;53.416;6.730;2022-07-22T03:23:24;16.70;99.90
51982;DHT22;37998;53.416;6.730;2022-07-22T03:25:50;16.30;99.90
51982;DHT22;37998;53.416;6.730;2022-07-22T03:28:15;16.30;99.90
51982;DHT22;37998;53.416;6.730;2022-07-22T03:30:41;16.30;99.90
51982;DHT22;37998;53.416;6.730;2022-07-22T03:33:07;16.30;99.90
51982;DHT22;37998;53.416;6.730;2022-07-22T03:35:32;16.30;99.90
51982;DHT22;37998;53.416;6.730;2022-07-22T03:37:58;16.30;99.90
51982;DHT22;37998;53.416;6.730;2022-07-22T03:40:24;16.30;99.90
51982;DHT22;37998;53.416;6.730;2022-07-22T03:42:49;16.20;99.90
51982;DHT22;37998;53.416;6.730;2022-07-22T03:45:15;16.30;99.90
51982;DHT22;37998;53.416;6.730;2022-07-22T03:47:41;16.30;99.90
51982;DHT22;37998;53.416;6.730;2022-07-22T03:50:07;16.30;99.90
51982;DHT22;37998;53.416;6.730;2022-07-22T03:52:33;16.30;99.90
51982;DHT22;37998;53.416;6.730;2022-07-22T03:54:58;16.30;99.90
51982;DHT22;37998;53.416;6.730;2022-07-22T03:57:24;16.30;99.90
51982;DHT22;37998;53.416;6.730;2022-07-22T03:59:50;16.30;99.90
51982;DHT22;37998;53.416;6.730;2022-07-22T04:02:15;16.30;99.90
51982;DHT22;37998;53.416;6.730;2022-07-22T04:04:41;16.30;99.90
51982;DHT22;37998;53.416;6.730;2022-07-22T04:07:07;16.40;99.90
51982;DHT22;37998;53.416;6.730;2022-07-22T04:09:32;16.40;99.90
51982;DHT22;37998;53.416;6.730;2022-07-22T04:11:58;16.40;99.90
51982;DHT22;37998;53.416;6.730;2022-07-22T04:14:24;16.40;99.90
51982;DHT22;37998;53.416;6.730;2022-07-22T04:16:49;16.50;99.90
51982;DHT22;37998;53.416;6.730;2022-07-22T04:19:15;16.40;99.90
51982;DHT22;37998;53.416;6.730;2022-07-22T04:21:41;16.50;99.90
51982;DHT22;37998;53.416;6.730;2022-07-22T04:24:07;16.50;99.90
51982;DHT22;37998;53.416;6.730;2022-07-22T04:26:33;16.50;99.90
51982;DHT22;37998;53.416;6.730;2022-07-22T04:28:58;16.40;99.90
51982;DHT22;37998;53.416;6.730;2022-07-22T04:31:24;16.30;99.90
51982;DHT22;37998;53.416;6.730;2022-07-22T04:33:50;16.50;99.90
51982;DHT22;37998;53.416;6.730;2022-07-22T04:36:15;16.50;99.90
51982;DHT22;37998;53.416;6.730;2022-07-22T04:38:41;16.50;99.90
51982;DHT22;37998;53.416;6.730;2022-07-22T04:41:07;16.50;99.90
51982;DHT22;37998;53.416;6.730;2022-07-22T04:43:32;16.50;99.90
51982;DHT22;37998;53.416;6.730;2022-07-22T04:45:58;16.40;99.90
51982;DHT22;37998;53.416;6.730;2022-07-22T04:48:24;16.40;99.90
51982;DHT22;37998;53.416;6.730;2022-07-22T04:50:49;16.40;99.90
51982;DHT22;37998;53.416;6.730;2022-07-22T04:53:15;16.40;99.90
51982;DHT22;37998;53.416;6.730;2022-07-22T04:55:41;16.40;99.90
51982;DHT22;37998;53.416;6.730;2022-07-22T04:58:06;16.20;99.90
51982;DHT22;37998;53.416;6.730;2022-07-22T05:00:32;16.40;99.90
51982;DHT22;37998;53.416;6.730;2022-07-22T05:02:58;16.30;99.90
51982;DHT22;37998;53.416;6.730;2022-07-22T05:05:23;16.40;99.90
51982;DHT22;37998;53.416;6.730;2022-07-22T05:07:49;16.40;99.90
51982;DHT22;37998;53.416;6.730;2022-07-22T05:10:15;16.40;99.90
51982;DHT22;37998;53.416;6.730;2022-07-22T05:12:41;16.40;99.90
51982;DHT22;37998;53.416;6.730;2022-07-22T05:15:07;16.40;99.90
51982;DHT22;37998;53.416;6.730;2022-07-22T05:17:33;16.40;99.90
51982;DHT22;37998;53.416;6.730;2022-07-22T05:19:58;16.40;99.90
51982;DHT22;37998;53.416;6.730;2022-07-22T05:22:24;16.50;99.90
51982;DHT22;37998;53.416;6.730;2022-07-22T05:24:50;16.50;99.90
51982;DHT22;37998;53.416;6.730;2022-07-22T05:27:16;16.50;99.90
51982;DHT22;37998;53.416;6.730;2022-07-22T05:29:41;16.50;99.90
51982;DHT22;37998;53.416;6.730;2022-07-22T05:32:07;16.50;99.90
51982;DHT22;37998;53.416;6.730;2022-07-22T05:34:33;16.50;99.90
51982;DHT22;37998;53.416;6.730;2022-07-22T05:36:59;16.50;99.90
51982;DHT22;37998;53.416;6.730;2022-07-22T05:39:24;16.50;99.90
51982;DHT22;37998;53.416;6.730;2022-07-22T05:41:50;16.60;99.90
51982;DHT22;37998;53.416;6.730;2022-07-22T05:44:15;16.50;99.90
51982;DHT22;37998;53.416;6.730;2022-07-22T05:46:41;16.50;99.90
51982;DHT22;37998;53.416;6.730;2022-07-22T05:49:07;16.50;99.90
51982;DHT22;37998;53.416;6.730;2022-07-22T05:51:32;16.50;99.90
51982;DHT22;37998;53.416;6.730;2022-07-22T05:53:59;16.50;99.90
51982;DHT22;37998;53.416;6.730;2022-07-22T05:56:27;16.60;99.90
51982;DHT22;37998;53.416;6.730;2022-07-22T05:58:54;16.50;99.90
51982;DHT22;37998;53.416;6.730;2022-07-22T06:01:21;16.60;99.90
51982;DHT22;37998;53.416;6.730;2022-07-22T06:03:47;16.70;99.90
51982;DHT22;37998;53.416;6.730;2022-07-22T06:06:13;16.60;99.90
51982;DHT22;37998;53.416;6.730;2022-07-22T06:08:38;16.70;99.90
51982;DHT22;37998;53.416;6.730;2022-07-22T06:11:04;16.60;99.90
51982;DHT22;37998;53.416;6.730;2022-07-22T06:13:30;16.70;99.90
51982;DHT22;37998;53.416;6.730;2022-07-22T06:15:56;16.70;99.90
51982;DHT22;37998;53.416;6.730;2022-07-22T06:18:21;16.70;99.90
51982;DHT22;37998;53.416;6.730;2022-07-22T06:20:47;17.30;99.90
51982;DHT22;37998;53.416;6.730;2022-07-22T06:23:13;16.70;99.90
51982;DHT22;37998;53.416;6.730;2022-07-22T06:25:38;16.80;99.90
51982;DHT22;37998;53.416;6.730;2022-07-22T06:28:04;16.90;99.90
51982;DHT22;37998;53.416;6.730;2022-07-22T06:30:30;16.90;99.90
51982;DHT22;37998;53.416;6.730;2022-07-22T06:32:55;16.90;99.90
51982;DHT22;37998;53.416;6.730;2022-07-22T06:35:21;16.90;99.90
51982;DHT22;37998;53.416;6.730;2022-07-22T06:37:47;17.00;99.90
51982;DHT22;37998;53.416;6.730;2022-07-22T06:40:12;17.00;99.90
51982;DHT22;37998;53.416;6.730;2022-07-22T06:42:39;17.00;99.90
51982;DHT22;37998;53.416;6.730;2022-07-22T06:45:05;17.10;99.90
51982;DHT22;37998;53.416;6.730;2022-07-22T06:47:30;17.10;99.90
51982;DHT22;37998;53.416;6.730;2022-07-22T06:49:57;17.10;99.90
51982;DHT22;37998;53.416;6.730;2022-07-22T06:52:23;17.10;99.90
51982;DHT22;37998;53.416;6.730;2022-07-22T06:54:49;17.20;99.90
51982;DHT22;37998;53.416;6.730;2022-07-22T06:57:14;17.20;99.90
51982;DHT22;37998;53.416;6.730;2022-07-22T06:59:40;17.30;99.90
51982;DHT22;37998;53.416;6.730;2022-07-22T07:02:06;17.20;99.90
51982;DHT22;37998;53.416;6.730;2022-07-22T07:04:32;17.20;99.90
51982;DHT22;37998;53.416;6.730;2022-07-22T07:06:58;17.20;99.90
51982;DHT22;37998;53.416;6.730;2022-07-22T07:09:23;17.20;99.90
51982;DHT22;37998;53.416;6.730;2022-07-22T07:11:49;17.10;99.90
51982;DHT22;37998;53.416;6.730;2022-07-22T07:14:15;17.10;99.90
51982;DHT22;37998;53.416;6.730;2022-07-22T07:16:40;17.10;99.90
51982;DHT22;37998;53.416;6.730;2022-07-22T07:19:06;17.10;99.90
51982;DHT22;37998;53.416;6.730;2022-07-22T07:21:32;17.10;99.90
51982;DHT22;37998;53.416;6.730;2022-07-22T07:23:57;17.20;99.90
51982;DHT22;37998;53.416;6.730;2022-07-22T07:26:23;17.20;99.90
51982;DHT22;37998;53.416;6.730;2022-07-22T07:28:49;17.30;99.90
51982;DHT22;37998;53.416;6.730;2022-07-22T07:31:15;17.30;99.90
51982;DHT22;37998;53.416;6.730;2022-07-22T07:33:40;17.30;99.90
51982;DHT22;37998;53.416;6.730;2022-07-22T07:36:06;17.40;99.90
51982;DHT22;37998;53.416;6.730;2022-07-22T07:38:32;17.30;99.90
51982;DHT22;37998;53.416;6.730;2022-07-22T07:40:59;17.30;99.90
51982;DHT22;37998;53.416;6.730;2022-07-22T07:43:25;17.30;99.90
51982;DHT22;37998;53.416;6.730;2022-07-22T07:45:51;17.40;99.90
51982;DHT22;37998;53.416;6.730;2022-07-22T07:48:16;17.50;99.90
51982;DHT22;37998;53.416;6.730;2022-07-22T07:50:42;17.50;99.90
51982;DHT22;37998;53.416;6.730;2022-07-22T07:53:08;17.50;99.90
51982;DHT22;37998;53.416;6.730;2022-07-22T07:55:33;17.60;99.90
51982;DHT22;37998;53.416;6.730;2022-07-22T07:58:03;17.60;99.90
51982;DHT22;37998;53.416;6.730;2022-07-22T08:00:28;17.60;99.90
51982;DHT22;37998;53.416;6.730;2022-07-22T08:02:57;17.60;99.90
51982;DHT22;37998;53.416;6.730;2022-07-22T08:05:23;17.70;99.90
51982;DHT22;37998;53.416;6.730;2022-07-22T08:07:49;17.70;99.90
51982;DHT22;37998;53.416;6.730;2022-07-22T08:10:15;17.70;99.90
51982;DHT22;37998;53.416;6.730;2022-07-22T08:12:41;17.70;99.90
51982;DHT22;37998;53.416;6.730;2022-07-22T08:15:07;17.70;99.90
51982;DHT22;37998;53.416;6.730;2022-07-22T08:17:34;17.60;99.90
51982;DHT22;37998;53.416;6.730;2022-07-22T08:20:00;17.60;99.90
51982;DHT22;37998;53.416;6.730;2022-07-22T08:22:25;17.60;99.90
51982;DHT22;37998;53.416;6.730;2022-07-22T08:24:51;17.60;99.90
51982;DHT22;37998;53.416;6.730;2022-07-22T08:27:17;17.70;99.90
51982;DHT22;37998;53.416;6.730;2022-07-22T08:29:42;17.70;99.90
51982;DHT22;37998;53.416;6.730;2022-07-22T08:32:08;17.70;99.90
51982;DHT22;37998;53.416;6.730;2022-07-22T08:34:35;17.80;99.90
51982;DHT22;37998;53.416;6.730;2022-07-22T08:37:00;17.80;99.90
51982;DHT22;37998;53.416;6.730;2022-07-22T08:39:26;17.90;99.90
51982;DHT22;37998;53.416;6.730;2022-07-22T08:41:52;18.00;99.90
51982;DHT22;37998;53.416;6.730;2022-07-22T08:44:18;18.00;99.90
51982;DHT22;37998;53.416;6.730;2022-07-22T08:46:44;18.10;99.90
51982;DHT22;37998;53.416;6.730;2022-07-22T08:49:14;18.10;99.90
51982;DHT22;37998;53.416;6.730;2022-07-22T08:51:39;18.10;99.90
51982;DHT22;37998;53.416;6.730;2022-07-22T08:54:05;18.10;99.90
51982;DHT22;37998;53.416;6.730;2022-07-22T08:56:31;18.20;99.90
51982;DHT22;37998;53.416;6.730;2022-07-22T08:58:56;18.20;99.90
51982;DHT22;37998;53.416;6.730;2022-07-22T09:01:22;18.20;99.90
51982;DHT22;37998;53.416;6.730;2022-07-22T09:03:56;18.20;99.90
51982;DHT22;37998;53.416;6.730;2022-07-22T09:06:24;18.30;99.90
51982;DHT22;37998;53.416;6.730;2022-07-22T09:09:01;18.30;99.90
51982;DHT22;37998;53.416;6.730;2022-07-22T09:11:28;18.30;99.90
51982;DHT22;37998;53.416;6.730;2022-07-22T09:13:56;18.30;99.90
51982;DHT22;37998;53.416;6.730;2022-07-22T09:16:42;18.30;99.90
51982;DHT22;37998;53.416;6.730;2022-07-22T09:19:08;18.40;99.90
51982;DHT22;37998;53.416;6.730;2022-07-22T09:21:36;18.30;99.90
51982;DHT22;37998;53.416;6.730;2022-07-22T09:24:04;18.40;99.90
51982;DHT22;37998;53.416;6.730;2022-07-22T09:26:31;18.50;99.90
51982;DHT22;37998;53.416;6.730;2022-07-22T09:28:58;18.50;99.90
51982;DHT22;37998;53.416;6.730;2022-07-22T09:31:26;18.60;99.90
51982;DHT22;37998;53.416;6.730;2022-07-22T09:33:52;18.70;99.90
51982;DHT22;37998;53.416;6.730;2022-07-22T09:36:19;18.70;99.90
51982;DHT22;37998;53.416;6.730;2022-07-22T09:38:45;18.70;99.90
51982;DHT22;37998;53.416;6.730;2022-07-22T09:41:10;18.70;99.90
51982;DHT22;37998;53.416;6.730;2022-07-22T09:43:36;18.70;99.90
51982;DHT22;37998;53.416;6.730;2022-07-22T09:46:02;18.60;99.90
51982;DHT22;37998;53.416;6.730;2022-07-22T09:48:29;18.50;99.90
51982;DHT22;37998;53.416;6.730;2022-07-22T09:50:56;18.50;99.90
51982;DHT22;37998;53.416;6.730;2022-07-22T09:53:24;18.40;99.90
51982;DHT22;37998;53.416;6.730;2022-07-22T09:55:52;18.40;99.90
51982;DHT22;37998;53.416;6.730;2022-07-22T09:58:18;18.40;99.90
51982;DHT22;37998;53.416;6.730;2022-07-22T10:00:43;18.40;99.90
51982;DHT22;37998;53.416;6.730;2022-07-22T10:03:29;18.40;99.90
51982;DHT22;37998;53.416;6.730;2022-07-22T10:05:57;18.20;99.90
51982;DHT22;37998;53.416;6.730;2022-07-22T10:08:25;18.40;99.90
51982;DHT22;37998;53.416;6.730;2022-07-22T10:10:52;18.40;99.90
51982;DHT22;37998;53.416;6.730;2022-07-22T10:13:18;18.40;99.90
51982;DHT22;37998;53.416;6.730;2022-07-22T10:15:45;18.50;99.90
51982;DHT22;37998;53.416;6.730;2022-07-22T10:18:17;18.50;99.90
51982;DHT22;37998;53.416;6.730;2022-07-22T10:20:43;18.60;99.90
51982;DHT22;37998;53.416;6.730;2022-07-22T10:23:11;18.50;99.90
51982;DHT22;37998;53.416;6.730;2022-07-22T10:25:55;18.60;99.90
51982;DHT22;37998;53.416;6.730;2022-07-22T10:28:30;18.70;99.90
51982;DHT22;37998;53.416;6.730;2022-07-22T10:33:56;19.60;99.90
51982;DHT22;37998;53.416;6.730;2022-07-22T10:36:40;18.80;99.90
51982;DHT22;37998;53.416;6.730;2022-07-22T10:39:13;18.80;99.90
51982;DHT22;37998;53.416;6.730;2022-07-22T10:41:44;18.70;99.90
51982;DHT22;37998;53.416;6.730;2022-07-22T10:44:10;18.60;99.90
51982;DHT22;37998;53.416;6.730;2022-07-22T10:46:50;18.60;99.90
51982;DHT22;37998;53.416;6.730;2022-07-22T10:49:18;18.60;99.90
51982;DHT22;37998;53.416;6.730;2022-07-22T10:52:22;18.50;99.90
51982;DHT22;37998;53.416;6.730;2022-07-22T10:55:19;18.50;99.90
51982;DHT22;37998;53.416;6.730;2022-07-22T10:57:44;18.50;99.90
51982;DHT22;37998;53.416;6.730;2022-07-22T11:00:10;18.40;99.90
51982;DHT22;37998;53.416;6.730;2022-07-22T11:02:38;18.40;99.90
51982;DHT22;37998;53.416;6.730;2022-07-22T11:05:04;18.50;99.90
51982;DHT22;37998;53.416;6.730;2022-07-22T11:07:30;18.60;99.90
51982;DHT22;37998;53.416;6.730;2022-07-22T11:10:15;18.70;99.90
51982;DHT22;37998;53.416;6.730;2022-07-22T11:12:43;18.70;99.90
51982;DHT22;37998;53.416;6.730;2022-07-22T11:15:09;18.70;99.90
51982;DHT22;37998;53.416;6.730;2022-07-22T11:17:37;18.70;99.90
51982;DHT22;37998;53.416;6.730;2022-07-22T11:20:05;18.60;99.90
51982;DHT22;37998;53.416;6.730;2022-07-22T11:22:31;18.70;99.90
51982;DHT22;37998;53.416;6.730;2022-07-22T11:25:00;18.70;99.90
51982;DHT22;37998;53.416;6.730;2022-07-22T11:27:26;18.80;99.90
51982;DHT22;37998;53.416;6.730;2022-07-22T11:29:54;18.80;99.90
51982;DHT22;37998;53.416;6.730;2022-07-22T11:32:22;18.90;99.90
51982;DHT22;37998;53.416;6.730;2022-07-22T11:34:48;19.00;99.90
51982;DHT22;37998;53.416;6.730;2022-07-22T11:37:15;18.80;99.90
51982;DHT22;37998;53.416;6.730;2022-07-22T11:39:41;18.70;99.90
51982;DHT22;37998;53.416;6.730;2022-07-22T11:42:07;18.80;99.90
51982;DHT22;37998;53.416;6.730;2022-07-22T11:44:35;18.80;99.90
51982;DHT22;37998;53.416;6.730;2022-07-22T11:47:02;18.80;99.90
51982;DHT22;37998;53.416;6.730;2022-07-22T11:49:29;18.80;99.90
51982;DHT22;37998;53.416;6.730;2022-07-22T11:51:55;18.80;99.90
51982;DHT22;37998;53.416;6.730;2022-07-22T11:54:21;18.90;99.90
51982;DHT22;37998;53.416;6.730;2022-07-22T11:56:47;18.80;99.90
51982;DHT22;37998;53.416;6.730;2022-07-22T11:59:16;18.80;99.90
51982;DHT22;37998;53.416;6.730;2022-07-22T12:01:44;18.90;99.90
51982;DHT22;37998;53.416;6.730;2022-07-22T12:04:13;18.90;99.90
51982;DHT22;37998;53.416;6.730;2022-07-22T12:06:42;19.00;99.90
51982;DHT22;37998;53.416;6.730;2022-07-22T12:11:38;19.10;99.90
51982;DHT22;37998;53.416;6.730;2022-07-22T12:14:13;19.20;99.90
51982;DHT22;37998;53.416;6.730;2022-07-22T12:16:40;19.20;99.90
51982;DHT22;37998;53.416;6.730;2022-07-22T12:19:11;19.20;99.90
51982;DHT22;37998;53.416;6.730;2022-07-22T12:21:53;19.30;99.90
51982;DHT22;37998;53.416;6.730;2022-07-22T12:26:53;19.40;99.90
51982;DHT22;37998;53.416;6.730;2022-07-22T12:31:58;19.50;99.90
51982;DHT22;37998;53.416;6.730;2022-07-22T12:34:41;19.50;99.90
51982;DHT22;37998;53.416;6.730;2022-07-22T12:39:55;19.30;99.90
51982;DHT22;37998;53.416;6.730;2022-07-22T12:42:22;19.30;99.90
51982;DHT22;37998;53.416;6.730;2022-07-22T12:50:43;19.40;99.90
51982;DHT22;37998;53.416;6.730;2022-07-22T12:53:10;19.40;99.90
51982;DHT22;37998;53.416;6.730;2022-07-22T12:55:41;19.50;99.90
51982;DHT22;37998;53.416;6.730;2022-07-22T12:58:08;19.60;99.90
51982;DHT22;37998;53.416;6.730;2022-07-22T13:00:36;19.70;99.90
51982;DHT22;37998;53.416;6.730;2022-07-22T13:03:02;19.60;99.90
51982;DHT22;37998;53.416;6.730;2022-07-22T13:05:28;19.70;99.90
51982;DHT22;37998;53.416;6.730;2022-07-22T13:07:54;19.60;99.90
51982;DHT22;37998;53.416;6.730;2022-07-22T13:10:21;19.50;99.90
51982;DHT22;37998;53.416;6.730;2022-07-22T13:12:47;19.50;99.90
51982;DHT22;37998;53.416;6.730;2022-07-22T13:15:13;19.30;99.90
51982;DHT22;37998;53.416;6.730;2022-07-22T13:17:40;19.30;99.90
51982;DHT22;37998;53.416;6.730;2022-07-22T13:20:07;19.30;99.90
51982;DHT22;37998;53.416;6.730;2022-07-22T13:22:33;19.30;99.90
51982;DHT22;37998;53.416;6.730;2022-07-22T13:24:59;19.30;99.90
51982;DHT22;37998;53.416;6.730;2022-07-22T13:27:25;19.20;99.90
51982;DHT22;37998;53.416;6.730;2022-07-22T13:29:50;19.30;99.90
51982;DHT22;37998;53.416;6.730;2022-07-22T13:32:16;19.30;99.90
51982;DHT22;37998;53.416;6.730;2022-07-22T13:34:42;19.30;99.90
51982;DHT22;37998;53.416;6.730;2022-07-22T13:37:08;19.20;99.90
51982;DHT22;37998;53.416;6.730;2022-07-22T13:39:33;19.20;99.90
51982;DHT22;37998;53.416;6.730;2022-07-22T13:41:59;19.30;99.90
51982;DHT22;37998;53.416;6.730;2022-07-22T13:44:25;19.30;99.90
51982;DHT22;37998;53.416;6.730;2022-07-22T13:46:50;19.30;99.90
51982;DHT22;37998;53.416;6.730;2022-07-22T13:49:16;19.40;99.90
51982;DHT22;37998;53.416;6.730;2022-07-22T13:51:42;19.40;99.90
51982;DHT22;37998;53.416;6.730;2022-07-22T13:54:07;19.50;99.90
51982;DHT22;37998;53.416;6.730;2022-07-22T13:56:34;19.50;99.90
51982;DHT22;37998;53.416;6.730;2022-07-22T13:59:00;19.60;99.90
51982;DHT22;37998;53.416;6.730;2022-07-22T14:01:26;19.50;99.90
51982;DHT22;37998;53.416;6.730;2022-07-22T14:03:52;19.50;99.90
51982;DHT22;37998;53.416;6.730;2022-07-22T14:06:18;19.50;99.90
51982;DHT22;37998;53.416;6.730;2022-07-22T14:08:44;19.50;99.90
51982;DHT22;37998;53.416;6.730;2022-07-22T14:11:09;19.50;99.90
51982;DHT22;37998;53.416;6.730;2022-07-22T14:13:35;19.50;99.90
51982;DHT22;37998;53.416;6.730;2022-07-22T14:16:01;19.50;99.90
51982;DHT22;37998;53.416;6.730;2022-07-22T14:18:47;19.50;99.90
51982;DHT22;37998;53.416;6.730;2022-07-22T14:21:13;19.50;99.90
51982;DHT22;37998;53.416;6.730;2022-07-22T14:23:38;19.50;99.90
51982;DHT22;37998;53.416;6.730;2022-07-22T14:26:04;19.50;99.90
51982;DHT22;37998;53.416;6.730;2022-07-22T14:28:30;19.50;99.90
51982;DHT22;37998;53.416;6.730;2022-07-22T14:30:56;19.50;99.80
51982;DHT22;37998;53.416;6.730;2022-07-22T14:33:22;19.60;99.70
51982;DHT22;37998;53.416;6.730;2022-07-22T14:35:50;19.60;99.90
51982;DHT22;37998;53.416;6.730;2022-07-22T14:38:16;20.00;99.80
51982;DHT22;37998;53.416;6.730;2022-07-22T14:40:43;19.60;99.60
51982;DHT22;37998;53.416;6.730;2022-07-22T14:43:09;19.50;99.40
51982;DHT22;37998;53.416;6.730;2022-07-22T14:45:34;19.50;99.50
51982;DHT22;37998;53.416;6.730;2022-07-22T14:48:00;19.50;99.80
51982;DHT22;37998;53.416;6.730;2022-07-22T14:50:25;19.30;99.80
51982;DHT22;37998;53.416;6.730;2022-07-22T14:52:51;19.30;99.90
51982;DHT22;37998;53.416;6.730;2022-07-22T14:55:17;19.30;99.90
51982;DHT22;37998;53.416;6.730;2022-07-22T14:57:42;19.30;99.90
51982;DHT22;37998;53.416;6.730;2022-07-22T15:00:08;19.30;99.90
51982;DHT22;37998;53.416;6.730;2022-07-22T15:02:34;19.40;99.90
51982;DHT22;37998;53.416;6.730;2022-07-22T15:05:00;19.50;99.90
51982;DHT22;37998;53.416;6.730;2022-07-22T15:07:26;19.60;99.80
51982;DHT22;37998;53.416;6.730;2022-07-22T15:09:52;19.60;99.60
51982;DHT22;37998;53.416;6.730;2022-07-22T15:12:17;19.60;99.50
51982;DHT22;37998;53.416;6.730;2022-07-22T15:14:43;19.60;99.70
51982;DHT22;37998;53.416;6.730;2022-07-22T15:17:08;19.70;99.70
51982;DHT22;37998;53.416;6.730;2022-07-22T15:19:34;19.70;99.70
51982;DHT22;37998;53.416;6.730;2022-07-22T15:22:00;19.60;99.60
51982;DHT22;37998;53.416;6.730;2022-07-22T15:24:25;19.50;99.70
51982;DHT22;37998;53.416;6.730;2022-07-22T15:26:51;19.50;99.90
51982;DHT22;37998;53.416;6.730;2022-07-22T15:29:17;19.50;99.50
51982;DHT22;37998;53.416;6.730;2022-07-22T15:31:43;19.40;99.50
51982;DHT22;37998;53.416;6.730;2022-07-22T15:34:09;19.40;99.80
51982;DHT22;37998;53.416;6.730;2022-07-22T15:36:34;19.40;99.90
51982;DHT22;37998;53.416;6.730;2022-07-22T15:39:00;19.30;99.80
51982;DHT22;37998;53.416;6.730;2022-07-22T15:41:26;19.30;99.90
51982;DHT22;37998;53.416;6.730;2022-07-22T15:43:53;19.30;99.90
51982;DHT22;37998;53.416;6.730;2022-07-22T15:46:18;19.20;99.80